Pagrindinis puslapis
METAR-TAF:

METAR-TAF

Oro uostai :

Erbilis, Irakas

platuma: 36-14-15N, ilguma: 43-57-47E, Aukštis: 415 m

Dabartinis oras

Ataskaita buvo paskelbta 48 minutes, ne 00:00 UTC
Vėjas 2 kt nuo kintamojo kryptimis
Temperatūra 20°C
Drėgmė 40%
Slėgis 1016 hPa
Matomumas: 8000 m

METAR: ORER 190000Z VRB02KT 8000 NSC 20/06 Q1016 NOSIG

Laikas: 03:48 (00:48 UTC)

Prognozė

Ataskaita buvo paskelbta 2 valandos ir 48 minutes, ne 22:00 UTC
Prognozė galioja nuo 19 metu 00 UTC su 19 metu 24 UTC
Vėjas 3 kt nuo kintamojo kryptimis
Matomumas: 8000 m
Tapsmas
nuo 19 metu 02 UTC su 19 metu 04 UTC
Su prošvaistėmis ne aukštis 4000 ft
Su prošvaistėmis ne aukštis 8000 ft
Laikinai
nuo 19 metu 03 UTC su 19 metu 24 UTC
Mažai debesys ne aukštis 2500 ft, Liūtiniai kamuoliniai debesys.

TAF: ORER 182200Z 1900/1924 VRB03KT 8000 NSC BECMG 1902/1904 BKN040 BKN080 TEMPO 1903/1924 -TSSHRA FEW025CB

Orai ataskaitas ir orų prognozės (METAR, TAF).

turimą stotys yra geltonos ir raudonos taškus žemėlapyje.

Perkelti pele per norėdami pamatyti stoties vardą.

Tada spustelėkite, norėdami matyti oro stebėjimo ir prognozės.

Norėdami pakeisti žemėlapį: spustelėkite ant žalios mygtukų su juodo kryžiaus žemyn,; žalią mygtuką su brūkšneliu, jei norite nutolinti; arba žalių rodyklių gretimoms žemėlapius.


METAR-TAF: